Time;durP1;ratioP1;P1;durP2;ratioP2;P2;SDS_P1;SDS_P2;PMS_P1;PMS_P2;Temp;Humidity;BMP_temperature;BMP_pressure;BME280_temperature;BME280_humidity;BME280_pressure;Samples;Min_cycle;Max_cycle;Signal;HPM_P1;HPM_P2
2021/12/24 00:02:09;;;;;;;6.43;4.50;;;;;;;6.13;100.00;152936.88;5018189;28;20475;-76
2021/12/24 00:04:45;;;;;;;4.30;3.07;;;;;;;6.12;100.00;152934.28;5051097;28;20446;-76
2021/12/24 00:07:20;;;;;;;5.93;4.10;;;;;;;6.12;100.00;152932.97;5033119;28;20451;-76
2021/12/24 00:09:56;;;;;;;4.20;3.80;;;;;;;6.15;100.00;152940.72;5029948;28;20830;-76
2021/12/24 00:12:34;;;;;;;5.00;3.90;;;;;;;6.20;100.00;152952.31;5066201;28;20809;-76
2021/12/24 00:15:30;;;;;;;6.00;4.47;;;;;;;6.24;100.00;152962.66;5008369;28;20794;-76
2021/12/24 00:18:13;;;;;;;4.40;3.83;;;;;;;6.24;100.00;152962.66;5033191;28;20451;-76
2021/12/24 00:35:31;;;;;;;5.07;4.03;;;;;;;6.21;100.00;152954.94;5016668;28;20535;-76
2021/12/24 00:38:11;;;;;;;4.50;3.90;;;;;;;6.11;100.00;152930.44;5017550;28;20436;-75
2021/12/24 00:40:48;;;;;;;4.40;3.97;;;;;;;6.10;100.00;152927.84;5047966;28;20451;-76
2021/12/24 00:43:23;;;;;;;4.57;4.07;;;;;;;6.00;100.00;152903.34;5033270;28;20910;-76
2021/12/24 00:45:58;;;;;;;5.37;3.83;;;;;;;6.00;100.00;152903.34;5057651;28;20444;-76
2021/12/24 00:48:36;;;;;;;6.70;3.37;;;;;;;5.96;100.00;152893.00;5029465;28;20558;-76
2021/12/24 00:51:23;;;;;;;4.90;4.07;;;;;;;5.98;100.00;152896.91;5025802;28;20432;-76
2021/12/24 00:56:51;;;;;;;4.10;3.70;;;;;;;5.99;100.00;152899.44;5031839;28;20439;-76
2021/12/24 00:59:27;;;;;;;4.13;3.40;;;;;;;6.02;100.00;152908.50;5030344;28;20444;-76
2021/12/24 01:02:04;;;;;;;8.10;3.77;;;;;;;5.98;100.00;152898.16;5029231;28;20467;-76
2021/12/24 01:04:41;;;;;;;4.27;3.30;;;;;;;6.08;100.00;152922.69;5026740;28;20448;-76
2021/12/24 01:07:17;;;;;;;5.70;4.47;;;;;;;6.03;100.00;152911.09;5016797;28;20829;-76
2021/12/24 01:09:53;;;;;;;4.57;3.77;;;;;;;6.04;100.00;152912.34;5064334;28;20450;-76
2021/12/24 01:12:28;;;;;;;3.93;3.43;;;;;;;6.07;100.00;152921.38;5049326;28;20451;-76
2021/12/24 01:15:07;;;;;;;4.40;3.67;;;;;;;6.07;100.00;152921.38;5016826;28;20444;-76
2021/12/24 01:17:49;;;;;;;5.03;3.47;;;;;;;6.13;100.00;152936.88;5015923;28;20838;-75
2021/12/24 01:20:31;;;;;;;4.20;3.67;;;;;;;6.13;100.00;152936.88;5001578;28;20424;-76
2021/12/24 01:26:19;;;;;;;4.60;3.47;;;;;;;6.20;100.00;152953.63;4956275;28;20447;-76
2021/12/24 01:29:30;;;;;;;3.10;2.53;;;;;;;6.20;100.00;152952.31;5025189;28;20452;-76
2021/12/24 01:37:56;;;;;;;4.27;3.50;;;;;;;6.25;100.00;152965.28;5022001;28;20488;-76
2021/12/24 01:40:50;;;;;;;4.00;2.97;;;;;;;6.28;100.00;152974.28;5042676;28;20439;-76
2021/12/24 01:43:26;;;;;;;3.90;3.50;;;;;;;6.30;100.00;152978.16;4998410;28;20441;-76
2021/12/24 01:46:03;;;;;;;3.37;3.07;;;;;;;6.36;100.00;152993.63;5031339;28;20444;-76
2021/12/24 01:48:41;;;;;;;4.33;3.83;;;;;;;6.34;100.00;152988.47;5016621;28;20443;-76
2021/12/24 01:51:18;;;;;;;3.60;2.93;;;;;;;6.36;100.00;152993.63;5014608;28;20795;-76
2021/12/24 01:54:02;;;;;;;3.87;3.47;;;;;;;6.36;100.00;152993.63;5015228;28;20467;-75
2021/12/24 01:56:38;;;;;;;3.83;3.43;;;;;;;6.36;100.00;152993.63;5015143;28;20467;-76
2021/12/24 01:59:14;;;;;;;4.97;3.27;;;;;;;6.38;100.00;152998.81;5015012;28;20455;-76
2021/12/24 02:01:50;;;;;;;4.40;3.10;;;;;;;6.40;100.00;153005.28;5040811;28;20732;-76
2021/12/24 02:04:26;;;;;;;4.90;3.77;;;;;;;6.53;100.00;153037.50;5016275;28;20467;-76
2021/12/24 02:07:01;;;;;;;4.10;3.70;;;;;;;6.51;100.00;153032.38;5044599;28;21015;-76
2021/12/24 02:09:38;;;;;;;5.87;2.70;;;;;;;6.49;100.00;153028.47;5014956;28;20451;-76
2021/12/24 02:12:15;;;;;;;3.63;2.80;;;;;;;6.51;100.00;153032.38;5030123;28;20439;-76
2021/12/24 02:14:55;;;;;;;3.40;3.10;;;;;;;6.48;100.00;153025.91;5015657;28;20518;-76
2021/12/24 02:17:50;;;;;;;6.50;2.87;;;;;;;6.51;100.00;153033.63;5014626;28;20827;-76
2021/12/24 02:29:14;;;;;;;3.63;3.20;;;;;;;6.53;100.00;153037.50;5027669;28;20475;-76
2021/12/24 02:31:49;;;;;;;5.10;3.60;;;;;;;6.59;100.00;153053.00;5015513;28;20423;-76
2021/12/24 02:34:25;;;;;;;4.13;2.83;;;;;;;6.54;100.00;153040.13;5015820;28;20470;-76
2021/12/24 02:37:02;;;;;;;5.67;3.60;;;;;;;6.53;100.00;153037.50;5014447;28;20444;-76
2021/12/24 02:39:38;;;;;;;3.40;3.10;;;;;;;6.44;100.00;153014.28;5029634;28;20440;-76
2021/12/24 02:42:16;;;;;;;4.70;3.30;;;;;;;6.44;100.00;153014.28;5008626;28;20475;-76
2021/12/24 02:44:52;;;;;;;3.90;3.20;;;;;;;6.38;100.00;153000.06;5030234;28;20447;-76
2021/12/24 02:47:53;;;;;;;3.93;3.13;;;;;;;6.36;100.00;152994.91;5013645;28;20435;-76
2021/12/24 02:56:17;;;;;;;3.80;3.10;;;;;;;6.41;100.00;153006.53;5014452;28;20465;-76
2021/12/24 02:58:53;;;;;;;4.43;2.80;;;;;;;6.36;100.00;152994.91;5043028;28;20527;-76
2021/12/24 03:01:31;;;;;;;3.77;2.97;;;;;;;6.38;100.00;152998.81;5014321;28;20447;-76
2021/12/24 03:04:08;;;;;;;3.27;2.97;;;;;;;6.47;100.00;153022.00;5015355;28;20434;-76
2021/12/24 03:06:45;;;;;;;4.00;3.00;;;;;;;6.45;100.00;153016.88;5029984;28;20740;-75
2021/12/24 03:09:23;;;;;;;3.77;3.00;;;;;;;6.46;100.00;153019.47;5003586;28;20440;-76
2021/12/24 03:11:59;;;;;;;3.57;3.20;;;;;;;6.47;100.00;153022.00;5043986;28;20834;-76
2021/12/24 03:14:35;;;;;;;3.97;2.97;;;;;;;6.49;100.00;153028.47;5048721;28;20447;-76
2021/12/24 03:17:14;;;;;;;3.37;2.90;;;;;;;6.46;100.00;153020.72;5020127;28;20443;-76
2021/12/24 03:19:52;;;;;;;3.50;3.13;;;;;;;6.42;100.00;153010.41;5029053;28;20452;-76
2021/12/24 03:22:40;;;;;;;4.30;3.00;;;;;;;6.37;100.00;152996.22;5047743;28;20475;-76
2021/12/24 03:25:17;;;;;;;3.20;2.90;;;;;;;6.43;100.00;153011.72;5063143;28;20531;-76
2021/12/24 03:27:53;;;;;;;4.33;3.20;;;;;;;6.47;100.00;153022.00;5014841;28;20472;-76
2021/12/24 03:30:29;;;;;;;4.63;3.20;;;;;;;6.48;100.00;153024.63;5014582;28;20792;-76
2021/12/24 03:33:05;;;;;;;3.60;3.00;;;;;;;6.58;100.00;153050.41;5013782;28;20533;-76
2021/12/24 03:35:41;;;;;;;4.53;3.13;;;;;;;6.50;100.00;153029.75;5027916;28;20874;-76
2021/12/24 03:38:16;;;;;;;3.70;2.67;;;;;;;6.60;99.88;153056.88;5012448;28;20445;-76
2021/12/24 03:40:53;;;;;;;4.30;3.23;;;;;;;6.59;99.09;153053.00;5029387;28;20930;-76
2021/12/24 03:43:28;;;;;;;5.67;3.73;;;;;;;6.60;99.54;153055.56;5013452;28;20482;-76
2021/12/24 03:46:10;;;;;;;4.27;3.23;;;;;;;6.57;99.42;153047.81;5000522;28;20448;-76
2021/12/24 03:48:50;;;;;;;3.67;2.97;;;;;;;6.53;99.64;153037.50;5029057;28;20455;-76
2021/12/24 03:51:39;;;;;;;5.40;3.70;;;;;;;6.50;99.89;153031.06;5010034;28;20445;-76
2021/12/24 03:57:10;;;;;;;4.10;3.20;;;;;;;6.58;99.58;153051.72;5027560;28;20436;-76
2021/12/24 04:00:08;;;;;;;4.00;3.23;;;;;;;6.58;99.74;153050.41;5065920;28;20542;-76
2021/12/24 04:02:53;;;;;;;3.33;2.60;;;;;;;6.60;99.60;153056.88;5033292;28;20483;-76
2021/12/24 04:05:48;;;;;;;4.80;3.20;;;;;;;6.56;99.42;153045.25;5065639;28;20448;-76
2021/12/24 04:08:46;;;;;;;3.57;2.70;;;;;;;6.43;100.00;153011.72;5022950;28;20927;-75
2021/12/24 04:11:48;;;;;;;4.20;2.63;;;;;;;6.45;100.00;153016.88;5033479;28;20439;-76
2021/12/24 04:14:25;;;;;;;2.67;2.43;;;;;;;6.38;100.00;153000.06;5011621;28;20442;-76
2021/12/24 04:17:01;;;;;;;4.50;3.70;;;;;;;6.38;100.00;152998.81;5034938;28;20451;-76
2021/12/24 04:24:51;;;;;;;4.27;3.40;;;;;;;6.40;100.00;153003.97;5017994;28;20431;-76
2021/12/24 04:25:30;;;;;;;3.23;2.83;;;;;;;6.34;100.00;152988.47;5000287;28;20436;-76
2021/12/24 04:28:06;;;;;;;3.93;2.77;;;;;;;6.32;100.00;152983.31;5009925;28;20970;-76
2021/12/24 04:30:47;;;;;;;3.40;2.93;;;;;;;6.33;100.00;152987.16;5013646;28;20440;-76
2021/12/24 04:33:29;;;;;;;4.23;2.97;;;;;;;6.37;100.00;152996.22;5010776;28;20468;-76
2021/12/24 04:36:19;;;;;;;4.30;3.53;;;;;;;6.42;100.00;153009.13;5050573;28;20455;-76
2021/12/24 04:39:13;;;;;;;3.90;3.33;;;;;;;6.42;100.00;153009.13;5030135;28;20457;-75
2021/12/24 05:02:16;;;;;;;5.63;3.30;;;;;;;6.50;100.00;153031.06;5033272;28;20485;-76
2021/12/24 05:04:56;;;;;;;4.03;3.43;;;;;;;6.50;100.00;153029.75;5027758;28;20452;-76
2021/12/24 05:08:03;;;;;;;3.60;3.27;;;;;;;6.54;100.00;153040.13;5023128;28;20456;-76
2021/12/24 05:10:39;;;;;;;7.57;3.40;;;;;;;6.51;100.00;153033.63;4997543;28;20468;-75
2021/12/24 05:13:18;;;;;;;7.80;3.70;;;;;;;6.54;100.00;153040.13;5010220;28;20934;-76
2021/12/24 05:16:23;;;;;;;4.47;3.40;;;;;;;6.60;100.00;153055.56;5031651;28;20509;-76
2021/12/24 05:22:33;;;;;;;4.37;3.90;;;;;;;6.71;100.00;153083.97;5049781;28;20491;-76
2021/12/24 05:25:14;;;;;;;3.83;3.17;;;;;;;6.65;100.00;153068.47;5014853;28;20432;-76
2021/12/24 05:27:51;;;;;;;4.33;3.23;;;;;;;6.59;100.00;153053.00;5065250;28;20447;-76
2021/12/24 05:30:28;;;;;;;4.03;3.63;;;;;;;6.71;100.00;153085.28;5016836;28;20444;-76
2021/12/24 05:33:04;;;;;;;5.23;4.60;;;;;;;6.73;100.00;153089.13;5014593;28;20475;-76
2021/12/24 05:35:40;;;;;;;3.30;2.67;;;;;;;6.73;100.00;153090.41;5031603;28;20533;-75
2021/12/24 05:38:19;;;;;;;3.70;3.40;;;;;;;6.77;100.00;153099.47;5016259;28;20439;-76
2021/12/24 05:40:55;;;;;;;4.23;3.50;;;;;;;6.84;100.00;153117.53;5016044;28;20452;-76
2021/12/24 05:43:31;;;;;;;4.30;3.23;;;;;;;6.84;100.00;153116.22;5047199;28;20819;-76
2021/12/24 05:46:06;;;;;;;4.40;3.47;;;;;;;6.81;100.00;153109.78;5014819;28;20443;-76
2021/12/24 05:48:53;;;;;;;5.23;3.30;;;;;;;6.80;100.00;153105.91;5030021;28;20464;-76
2021/12/24 05:51:29;;;;;;;3.60;2.73;;;;;;;6.89;100.00;153130.44;5015510;28;20453;-76
2021/12/24 05:54:32;;;;;;;4.60;3.30;;;;;;;6.85;100.00;153120.13;5030686;28;20448;-76
2021/12/24 05:57:08;;;;;;;3.83;3.43;;;;;;;6.89;100.00;153130.44;5015764;28;20447;-76
2021/12/24 05:59:44;;;;;;;3.73;3.23;;;;;;;6.94;100.00;153143.34;5013051;28;20466;-76
2021/12/24 06:02:19;;;;;;;4.60;3.10;;;;;;;6.96;100.00;153148.53;5015818;28;20463;-76
2021/12/24 06:04:55;;;;;;;4.53;2.93;;;;;;;6.93;100.00;153140.78;5064152;28;20534;-76
2021/12/24 06:07:30;;;;;;;4.10;3.43;;;;;;;7.05;100.00;153170.44;5029831;28;20455;-76
2021/12/24 06:10:08;;;;;;;3.97;3.30;;;;;;;7.11;100.00;153187.25;4998805;28;20455;-75
2021/12/24 06:12:44;;;;;;;4.87;3.83;;;;;;;7.09;99.88;153180.81;5031895;28;20779;-76
2021/12/24 06:15:23;;;;;;;4.27;3.30;;;;;;;7.02;100.00;153164.00;5015289;28;20451;-76
2021/12/24 06:17:59;;;;;;;5.80;3.37;;;;;;;7.04;100.00;153169.16;5063088;28;20452;-76
2021/12/24 06:20:35;;;;;;;3.63;3.33;;;;;;;7.06;100.00;153174.34;5015647;28;20431;-76
2021/12/24 06:23:10;;;;;;;6.30;3.30;;;;;;;7.08;100.00;153178.19;5030085;28;20463;-76
2021/12/24 06:25:48;;;;;;;7.03;3.30;;;;;;;6.99;100.00;153155.00;5029994;28;20486;-76
2021/12/24 06:28:23;;;;;;;5.20;3.73;;;;;;;7.03;100.00;153166.59;5064183;28;20795;-76
2021/12/24 06:30:59;;;;;;;3.90;3.40;;;;;;;7.02;100.00;153162.69;5063637;28;20436;-76
2021/12/24 06:33:35;;;;;;;4.27;3.50;;;;;;;7.00;100.00;153158.84;5031485;28;20973;-76
2021/12/24 06:36:11;;;;;;;5.97;3.30;;;;;;;7.02;100.00;153164.00;5004632;28;20440;-76
2021/12/24 06:38:47;;;;;;;4.03;3.63;;;;;;;7.00;100.00;153158.84;5048802;28;20791;-76
2021/12/24 06:41:23;;;;;;;4.13;3.33;;;;;;;7.06;100.00;153173.03;5029585;28;20447;-76
2021/12/24 06:43:59;;;;;;;4.30;3.90;;;;;;;7.04;100.00;153169.16;5063142;28;20475;-76
2021/12/24 06:46:35;;;;;;;4.50;3.47;;;;;;;7.10;100.00;153184.66;5013891;28;20443;-76
2021/12/24 06:49:11;;;;;;;4.80;4.00;;;;;;;7.10;100.00;153184.66;5015795;28;20518;-76
2021/12/24 06:51:47;;;;;;;4.17;3.77;;;;;;;7.11;100.00;153187.25;5063532;28;20518;-76
2021/12/24 06:54:22;;;;;;;4.20;3.40;;;;;;;7.13;100.00;153192.41;5030546;28;20926;-76
2021/12/24 06:57:00;;;;;;;4.10;3.63;;;;;;;7.06;100.00;153174.34;5012559;28;20454;-76
2021/12/24 06:59:35;;;;;;;7.10;4.00;;;;;;;7.17;100.00;153202.75;5008937;28;20447;-76
2021/12/24 07:02:11;;;;;;;5.33;3.83;;;;;;;7.13;100.00;153192.41;5012395;28;20850;-76
2021/12/24 07:04:46;;;;;;;4.53;3.97;;;;;;;7.20;100.00;153210.47;5029411;28;20794;-76
2021/12/24 07:07:22;;;;;;;4.10;2.93;;;;;;;7.09;100.00;153182.09;5029362;28;21019;-76
2021/12/24 07:09:58;;;;;;;5.33;4.50;;;;;;;7.12;100.00;153189.81;5025307;28;20436;-75
2021/12/24 07:12:35;;;;;;;3.90;3.60;;;;;;;7.07;100.00;153175.66;5017942;28;20443;-76
2021/12/24 07:15:11;;;;;;;4.97;4.03;;;;;;;7.09;100.00;153180.81;5050036;28;20436;-76
2021/12/24 07:17:47;;;;;;;3.90;3.50;;;;;;;7.10;100.00;153184.66;5022966;28;20543;-76
2021/12/24 07:20:22;;;;;;;5.13;3.30;;;;;;;7.04;100.00;153169.16;5014849;28;20447;-76
2021/12/24 07:22:58;;;;;;;4.20;3.40;;;;;;;7.04;100.00;153167.91;5031340;28;20471;-76
2021/12/24 07:25:33;;;;;;;4.30;3.40;;;;;;;7.09;100.00;153182.09;5029646;28;20455;-76
2021/12/24 07:28:10;;;;;;;5.07;3.63;;;;;;;7.14;100.00;153193.72;5030016;28;20448;-76
2021/12/24 07:30:46;;;;;;;4.07;3.67;;;;;;;7.12;100.00;153189.81;5023932;28;20483;-76
2021/12/24 07:33:21;;;;;;;6.67;4.20;;;;;;;7.17;100.00;153202.75;5018756;28;20479;-76
2021/12/24 07:35:57;;;;;;;5.03;4.23;;;;;;;7.06;100.00;153173.03;5047375;28;20432;-76
2021/12/24 07:38:33;;;;;;;4.80;3.47;;;;;;;7.04;100.00;153169.16;5032630;28;20460;-76
2021/12/24 07:41:08;;;;;;;5.57;3.97;;;;;;;7.05;100.00;153171.75;5030282;28;20451;-76
2021/12/24 07:43:46;;;;;;;6.73;4.27;;;;;;;7.05;100.00;153170.44;5065857;28;20470;-77
2021/12/24 07:46:24;;;;;;;4.50;4.10;;;;;;;7.03;100.00;153165.28;5017452;28;20439;-76
2021/12/24 07:49:11;;;;;;;3.80;3.33;;;;;;;7.01;100.00;153161.44;5004905;28;20445;-76
2021/12/24 07:52:02;;;;;;;5.13;4.37;;;;;;;7.00;100.00;153157.53;5003092;28;20463;-76
2021/12/24 07:54:39;;;;;;;4.73;4.10;;;;;;;6.99;100.00;153156.25;5028414;28;20447;-76
2021/12/24 07:57:16;;;;;;;4.23;3.50;;;;;;;7.02;100.00;153164.00;5066351;28;20554;-76
2021/12/24 07:59:53;;;;;;;4.77;3.93;;;;;;;7.03;100.00;153165.28;5016800;28;20459;-76
2021/12/24 08:02:29;;;;;;;5.30;4.10;;;;;;;7.01;100.00;153161.44;5017504;28;20451;-76
2021/12/24 08:05:05;;;;;;;5.67;4.50;;;;;;;6.97;100.00;153151.09;5023329;28;20432;-76
2021/12/24 08:07:41;;;;;;;4.50;3.30;;;;;;;6.95;100.00;153144.63;5013847;28;20449;-76
2021/12/24 08:10:17;;;;;;;4.20;3.37;;;;;;;6.93;100.00;153140.78;5044670;28;20444;-76
2021/12/24 08:12:53;;;;;;;5.80;4.10;;;;;;;6.99;100.00;153156.25;5013378;28;20448;-76
2021/12/24 08:15:29;;;;;;;6.73;4.03;;;;;;;6.99;100.00;153156.25;5030777;28;20440;-76
2021/12/24 08:18:05;;;;;;;4.70;4.20;;;;;;;7.00;100.00;153158.84;5058752;28;20464;-76
2021/12/24 08:20:41;;;;;;;4.63;3.43;;;;;;;6.97;100.00;153151.09;5008987;28;20989;-76
2021/12/24 08:23:16;;;;;;;5.20;4.20;;;;;;;6.98;100.00;153153.69;5025275;28;20475;-76
2021/12/24 08:25:58;;;;;;;4.90;3.73;;;;;;;6.99;100.00;153156.25;5028789;28;20447;-76
2021/12/24 08:28:33;;;;;;;4.50;4.03;;;;;;;7.02;100.00;153162.69;5027941;28;20435;-76
2021/12/24 08:31:11;;;;;;;4.60;3.70;;;;;;;7.01;100.00;153161.44;5016219;28;20861;-76
2021/12/24 08:33:46;;;;;;;4.77;3.97;;;;;;;7.03;100.00;153166.59;5054685;28;20590;-76
2021/12/24 08:36:22;;;;;;;5.67;4.77;;;;;;;7.04;100.00;153169.16;5031076;28;20424;-76
2021/12/24 08:38:58;;;;;;;5.77;3.60;;;;;;;7.11;100.00;153185.94;5015117;28;20439;-76
2021/12/24 08:41:34;;;;;;;6.40;4.10;;;;;;;7.10;100.00;153184.66;5055903;28;20448;-76
2021/12/24 08:44:09;;;;;;;4.80;3.60;;;;;;;7.16;100.00;153200.16;5057128;28;20520;-76
2021/12/24 08:46:46;;;;;;;4.30;3.57;;;;;;;7.21;100.00;153211.78;5031423;28;20483;-76
2021/12/24 08:49:23;;;;;;;4.60;3.60;;;;;;;7.15;100.00;153197.56;5016586;28;20443;-76
2021/12/24 08:51:59;;;;;;;4.57;4.07;;;;;;;7.21;100.00;153213.06;5062924;28;20467;-76
2021/12/24 08:54:35;;;;;;;5.70;4.13;;;;;;;7.30;100.00;153235.03;5029277;28;20906;-76
2021/12/24 08:57:10;;;;;;;5.77;4.03;;;;;;;7.31;100.00;153238.88;5001996;28;20448;-76
2021/12/24 08:59:46;;;;;;;4.13;3.50;;;;;;;7.31;100.00;153238.88;5024853;28;21045;-76
2021/12/24 09:02:23;;;;;;;4.53;3.83;;;;;;;7.28;100.00;153231.13;5048515;28;20447;-76
2021/12/24 09:04:58;;;;;;;5.30;3.90;;;;;;;7.27;100.00;153228.56;5016226;28;20471;-76
2021/12/24 09:07:34;;;;;;;4.50;3.83;;;;;;;7.30;100.00;153235.03;5016743;28;20447;-76
2021/12/24 09:10:11;;;;;;;6.70;4.00;;;;;;;7.35;100.00;153249.25;5016378;28;20439;-76
2021/12/24 09:12:47;;;;;;;4.33;3.60;;;;;;;7.33;100.00;153242.78;5062569;28;20508;-76
2021/12/24 09:15:27;;;;;;;3.97;3.57;;;;;;;7.29;100.00;153233.72;5031664;28;20447;-76
2021/12/24 09:18:05;;;;;;;3.70;3.27;;;;;;;7.32;100.00;153241.47;5031369;28;20505;-76
2021/12/24 09:20:43;;;;;;;4.50;4.10;;;;;;;7.28;100.00;153231.13;5064565;28;20942;-76
2021/12/24 09:23:19;;;;;;;4.63;3.60;;;;;;;7.27;100.00;153228.56;5027284;28;20480;-76
2021/12/24 09:25:55;;;;;;;4.33;3.80;;;;;;;7.31;100.00;153237.59;5027069;28;20447;-76
2021/12/24 09:28:30;;;;;;;4.80;3.90;;;;;;;7.32;100.00;153241.47;5031512;28;20787;-76
2021/12/24 09:31:06;;;;;;;4.37;3.10;;;;;;;7.30;100.00;153236.34;5016316;28;20444;-76
2021/12/24 09:33:43;;;;;;;7.17;4.30;;;;;;;7.31;100.00;153238.88;5023210;28;20823;-76
2021/12/24 09:36:24;;;;;;;4.80;4.30;;;;;;;7.32;100.00;153241.47;5064063;28;20526;-76
2021/12/24 09:39:02;;;;;;;5.30;3.97;;;;;;;7.30;100.00;153236.34;5031400;28;20428;-76
2021/12/24 09:41:38;;;;;;;4.10;3.70;;;;;;;7.38;100.00;153254.41;5030985;28;20471;-77
2021/12/24 09:44:14;;;;;;;5.30;4.00;;;;;;;7.35;100.00;153249.25;5058794;28;20471;-76
2021/12/24 09:46:50;;;;;;;5.07;3.87;;;;;;;7.28;100.00;153231.13;5012830;28;20441;-76
2021/12/24 09:49:26;;;;;;;4.17;3.60;;;;;;;7.27;100.00;153228.56;5063021;28;20452;-77
2021/12/24 09:52:04;;;;;;;4.63;3.93;;;;;;;7.33;100.00;153244.03;5029806;28;20452;-77
2021/12/24 09:54:44;;;;;;;4.97;4.03;;;;;;;7.28;100.00;153231.13;5056474;28;20522;-77
2021/12/24 09:57:20;;;;;;;4.57;4.17;;;;;;;7.27;100.00;153228.56;5043220;28;20726;-77
2021/12/24 09:59:55;;;;;;;5.93;5.10;;;;;;;7.25;100.00;153223.38;5028225;28;20934;-77
2021/12/24 10:02:40;;;;;;;5.57;4.30;;;;;;;7.31;100.00;153238.88;5042529;28;20455;-77
2021/12/24 10:05:26;;;;;;;5.27;4.13;;;;;;;7.31;100.00;153238.88;5058619;28;20479;-77
2021/12/24 10:08:04;;;;;;;5.97;4.43;;;;;;;7.30;100.00;153235.03;5016201;28;20448;-77
2021/12/24 10:10:43;;;;;;;5.70;4.63;;;;;;;7.30;100.00;153236.34;5029376;28;20448;-77
2021/12/24 10:13:26;;;;;;;8.03;5.00;;;;;;;7.29;100.00;153232.44;5037411;28;20797;-77
2021/12/24 10:16:04;;;;;;;7.27;5.47;;;;;;;7.26;100.00;153225.97;5017236;28;20487;-77
2021/12/24 10:18:44;;;;;;;8.27;4.57;;;;;;;7.25;100.00;153223.38;5014788;28;20447;-77
2021/12/24 10:21:24;;;;;;;5.40;4.90;;;;;;;7.31;100.00;153237.59;5034499;28;20443;-77
2021/12/24 10:24:00;;;;;;;4.77;4.10;;;;;;;7.30;100.00;153236.34;5020605;28;20492;-77
2021/12/24 10:26:40;;;;;;;4.93;4.33;;;;;;;7.29;100.00;153233.72;5030204;28;20439;-77
2021/12/24 10:29:17;;;;;;;5.83;4.13;;;;;;;7.27;100.00;153227.28;5063931;28;20531;-77
2021/12/24 10:31:55;;;;;;;6.47;5.13;;;;;;;7.31;100.00;153238.88;5030540;28;20439;-77
2021/12/24 10:34:32;;;;;;;4.60;4.20;;;;;;;7.32;100.00;153241.47;5061930;28;20953;-77
2021/12/24 10:37:18;;;;;;;4.90;4.13;;;;;;;7.32;100.00;153241.47;5030683;28;20550;-76
2021/12/24 10:39:55;;;;;;;5.10;4.40;;;;;;;7.34;100.00;153246.63;5027247;28;20472;-77
2021/12/24 10:42:32;;;;;;;4.37;3.90;;;;;;;7.35;100.00;153249.25;5045102;28;20439;-77
2021/12/24 10:45:10;;;;;;;4.90;4.40;;;;;;;7.36;100.00;153251.78;5059077;28;20546;-77
2021/12/24 10:47:46;;;;;;;5.20;3.90;;;;;;;7.38;100.00;153255.69;5029612;28;20533;-77
2021/12/24 10:50:30;;;;;;;5.70;5.07;;;;;;;7.41;100.00;153262.16;5037209;28;20434;-77
2021/12/24 10:53:17;;;;;;;4.97;4.40;;;;;;;7.40;100.00;153259.53;5033740;28;20452;-77
2021/12/24 10:55:54;;;;;;;5.43;4.87;;;;;;;7.42;100.00;153264.69;5026980;28;20528;-77
2021/12/24 10:58:31;;;;;;;4.63;4.10;;;;;;;7.40;100.00;153259.53;5063358;28;20451;-77
2021/12/24 11:01:07;;;;;;;5.50;4.53;;;;;;;7.38;100.00;153254.41;5029951;28;20435;-77
2021/12/24 11:03:44;;;;;;;8.07;5.90;;;;;;;7.41;100.00;153262.16;5031695;28;20444;-77
2021/12/24 11:06:21;;;;;;;5.77;4.80;;;;;;;7.36;100.00;153251.78;5064871;28;20856;-77
2021/12/24 11:08:59;;;;;;;7.07;5.90;;;;;;;7.42;100.00;153264.69;5017848;28;20435;-77
2021/12/24 11:11:36;;;;;;;8.03;5.60;;;;;;;7.41;100.00;153262.16;5032734;28;20448;-77
2021/12/24 11:14:20;;;;;;;6.60;4.77;;;;;;;7.41;100.00;153262.16;5017111;28;20432;-77
2021/12/24 11:16:55;;;;;;;4.40;3.97;;;;;;;7.41;100.00;153262.16;5067097;28;20543;-77
2021/12/24 11:19:50;;;;;;;5.23;4.13;;;;;;;7.44;100.00;153271.16;5066438;28;20474;-77
2021/12/24 11:22:26;;;;;;;5.27;4.50;;;;;;;7.42;100.00;153266.00;5035435;28;20899;-77
2021/12/24 11:25:03;;;;;;;5.90;4.30;;;;;;;7.43;100.00;153268.59;5018704;28;20570;-77
2021/12/24 11:27:39;;;;;;;4.47;3.90;;;;;;;7.45;100.00;153272.47;5033574;28;20440;-77
2021/12/24 11:30:15;;;;;;;4.73;4.03;;;;;;;7.49;100.00;153282.81;5017342;28;20458;-77
2021/12/24 11:32:51;;;;;;;7.47;4.30;;;;;;;7.46;100.00;153276.34;5066118;28;20491;-77
2021/12/24 11:35:27;;;;;;;4.50;3.73;;;;;;;7.52;100.00;153290.56;5018536;28;20526;-77
2021/12/24 11:38:03;;;;;;;6.47;4.37;;;;;;;7.53;100.00;153293.13;5033622;28;20470;-77
2021/12/24 11:40:40;;;;;;;4.23;3.63;;;;;;;7.47;100.00;153277.63;5024671;28;20443;-77
2021/12/24 11:43:16;;;;;;;4.63;3.87;;;;;;;7.52;100.00;153290.56;5016767;28;20475;-77
2021/12/24 11:45:52;;;;;;;4.07;3.20;;;;;;;7.54;100.00;153297.03;5065508;28;20855;-77
2021/12/24 11:48:30;;;;;;;4.63;3.77;;;;;;;7.55;100.00;153299.59;5013216;28;20550;-77
2021/12/24 11:51:09;;;;;;;7.07;3.30;;;;;;;7.53;100.00;153293.13;5013330;28;20860;-77
2021/12/24 11:53:45;;;;;;;3.03;2.70;;;;;;;7.53;100.00;153294.44;5018088;28;20455;-77
2021/12/24 11:56:23;;;;;;;3.67;3.07;;;;;;;7.57;100.00;153303.47;5065732;28;20439;-77
2021/12/24 11:58:59;;;;;;;3.10;2.80;;;;;;;7.60;100.00;153312.50;5016728;28;20432;-77
2021/12/24 12:01:39;;;;;;;3.83;3.13;;;;;;;7.59;100.00;153308.63;5050307;28;20439;-77
2021/12/24 12:04:16;;;;;;;5.20;3.30;;;;;;;7.59;100.00;153308.63;5001651;28;20496;-77
2021/12/24 12:06:51;;;;;;;3.67;2.80;;;;;;;7.63;100.00;153320.25;5027416;28;20455;-77
2021/12/24 12:09:40;;;;;;;5.70;3.90;;;;;;;7.67;100.00;153329.31;5059413;28;20505;-77
2021/12/24 12:12:32;;;;;;;3.30;2.77;;;;;;;7.65;100.00;153325.41;5048065;28;20444;-77
2021/12/24 12:15:29;;;;;;;3.93;3.57;;;;;;;7.73;100.00;153344.81;5050279;28;20440;-77
2021/12/24 12:18:05;;;;;;;3.70;2.97;;;;;;;7.75;100.00;153351.28;5057528;28;20448;-77
2021/12/24 12:20:45;;;;;;;3.70;3.07;;;;;;;7.74;100.00;153347.38;5022724;28;20452;-77
2021/12/24 12:26:54;;;;;;;4.93;2.83;;;;;;;7.83;100.00;153370.66;5039392;28;20480;-77
2021/12/24 12:29:34;;;;;;;3.70;2.70;;;;;;;7.86;100.00;153379.66;5050137;28;20530;-77
2021/12/24 12:32:27;;;;;;;4.20;3.00;;;;;;;7.86;100.00;153378.41;5027228;28;20802;-77
2021/12/24 12:35:03;;;;;;;3.23;2.53;;;;;;;7.84;100.00;153373.19;5063734;28;20947;-77
2021/12/24 12:37:45;;;;;;;3.30;3.00;;;;;;;7.88;100.00;153383.56;5029927;28;20447;-77
2021/12/24 12:40:30;;;;;;;3.20;2.90;;;;;;;7.90;100.00;153390.03;5006900;28;20586;-77
2021/12/24 12:43:10;;;;;;;4.13;3.73;;;;;;;7.94;100.00;153400.34;5052749;28;20448;-77
2021/12/24 12:46:00;;;;;;;3.73;3.30;;;;;;;7.94;100.00;153399.09;5032346;28;20463;-77
2021/12/24 12:48:49;;;;;;;4.43;4.03;;;;;;;7.95;100.00;153401.63;5031582;28;20451;-77
2021/12/24 12:51:54;;;;;;;14.07;10.70;;;;;;;8.00;100.00;153414.53;5028852;28;20440;-77
2021/12/24 12:54:34;;;;;;;17.10;12.90;;;;;;;7.97;100.00;153406.78;5023553;28;20530;-77
2021/12/24 12:57:20;;;;;;;19.00;15.37;;;;;;;8.00;100.00;153414.53;5055188;28;20567;-77
2021/12/24 13:00:18;;;;;;;16.73;13.80;;;;;;;8.01;100.00;153417.16;5011424;28;20433;-77
2021/12/24 13:03:15;;;;;;;10.80;9.70;;;;;;;8.02;100.00;153419.75;5020951;28;20734;-77
2021/12/24 13:06:01;;;;;;;7.50;6.70;;;;;;;8.07;100.00;153432.66;5030192;28;20870;-77
2021/12/24 13:08:39;;;;;;;4.47;4.07;;;;;;;8.07;100.00;153432.66;5008357;28;20456;-77
2021/12/24 13:11:16;;;;;;;3.67;2.57;;;;;;;8.08;100.00;153435.22;5055018;28;20445;-77
2021/12/24 13:13:55;;;;;;;3.10;2.80;;;;;;;8.15;100.00;153452.03;5026596;28;20455;-77
2021/12/24 13:16:35;;;;;;;2.80;2.23;;;;;;;8.16;100.00;153454.59;5014821;28;20541;-77
2021/12/24 13:19:28;;;;;;;3.73;2.77;;;;;;;8.13;100.00;153448.13;5026538;28;20456;-77
2021/12/24 13:25:01;;;;;;;2.40;2.20;;;;;;;8.11;100.00;153443.00;5018276;28;20817;-77
2021/12/24 13:27:39;;;;;;;2.60;2.00;;;;;;;8.12;100.00;153445.59;5008890;28;20448;-77
2021/12/24 13:30:17;;;;;;;3.00;2.27;;;;;;;8.14;100.00;153449.44;5013165;28;20526;-77
2021/12/24 13:32:54;;;;;;;2.90;2.10;;;;;;;8.13;100.00;153446.88;5024840;28;20503;-77
2021/12/24 13:35:37;;;;;;;2.73;2.10;;;;;;;8.11;100.00;153443.00;5013686;28;20949;-77
2021/12/24 13:38:13;;;;;;;2.57;2.10;;;;;;;8.07;100.00;153432.66;5023227;28;20460;-77